sensor_id;sensor_type;location;lat;lon;timestamp;temperature;humidity
63704;SHT31;49851;53.684;10.216;2023-02-03T00:00:36;5.85;90.38
63704;SHT31;49851;53.684;10.216;2023-02-03T00:03:02;5.85;90.39
63704;SHT31;49851;53.684;10.216;2023-02-03T00:05:27;5.87;90.47
63704;SHT31;49851;53.684;10.216;2023-02-03T00:07:53;5.87;90.48
63704;SHT31;49851;53.684;10.216;2023-02-03T00:10:18;5.89;90.57
63704;SHT31;49851;53.684;10.216;2023-02-03T00:12:46;5.90;90.61
63704;SHT31;49851;53.684;10.216;2023-02-03T00:15:12;5.92;90.63
63704;SHT31;49851;53.684;10.216;2023-02-03T00:17:37;5.92;90.66
63704;SHT31;49851;53.684;10.216;2023-02-03T00:20:02;5.92;90.71
63704;SHT31;49851;53.684;10.216;2023-02-03T00:22:28;5.93;90.76
63704;SHT31;49851;53.684;10.216;2023-02-03T00:24:53;5.93;90.82
63704;SHT31;49851;53.684;10.216;2023-02-03T00:27:18;5.96;90.91
63704;SHT31;49851;53.684;10.216;2023-02-03T00:29:43;5.97;90.95
63704;SHT31;49851;53.684;10.216;2023-02-03T00:32:08;6.00;91.01
63704;SHT31;49851;53.684;10.216;2023-02-03T00:34:34;6.00;91.04
63704;SHT31;49851;53.684;10.216;2023-02-03T00:36:59;6.02;91.08
63704;SHT31;49851;53.684;10.216;2023-02-03T00:39:24;6.02;91.16
63704;SHT31;49851;53.684;10.216;2023-02-03T00:41:49;6.04;91.18
63704;SHT31;49851;53.684;10.216;2023-02-03T00:44:15;6.06;91.26
63704;SHT31;49851;53.684;10.216;2023-02-03T00:46:40;6.09;91.30
63704;SHT31;49851;53.684;10.216;2023-02-03T00:49:05;6.07;91.34
63704;SHT31;49851;53.684;10.216;2023-02-03T00:51:31;6.09;91.38
63704;SHT31;49851;53.684;10.216;2023-02-03T00:53:57;6.13;91.43
63704;SHT31;49851;53.684;10.216;2023-02-03T00:56:22;6.13;91.51
63704;SHT31;49851;53.684;10.216;2023-02-03T00:58:47;6.16;91.59
63704;SHT31;49851;53.684;10.216;2023-02-03T01:01:13;6.17;91.69
63704;SHT31;49851;53.684;10.216;2023-02-03T01:03:38;6.21;91.79
63704;SHT31;49851;53.684;10.216;2023-02-03T01:06:07;6.27;91.85
63704;SHT31;49851;53.684;10.216;2023-02-03T01:08:32;6.27;91.93
63704;SHT31;49851;53.684;10.216;2023-02-03T01:10:57;6.32;92.09
63704;SHT31;49851;53.684;10.216;2023-02-03T01:13:23;6.39;92.18
63704;SHT31;49851;53.684;10.216;2023-02-03T01:15:48;6.37;92.32
63704;SHT31;49851;53.684;10.216;2023-02-03T01:18:13;6.46;92.47
63704;SHT31;49851;53.684;10.216;2023-02-03T01:20:38;6.48;92.60
63704;SHT31;49851;53.684;10.216;2023-02-03T01:23:04;6.53;92.75
63704;SHT31;49851;53.684;10.216;2023-02-03T01:25:29;6.57;92.83
63704;SHT31;49851;53.684;10.216;2023-02-03T01:27:54;6.59;92.99
63704;SHT31;49851;53.684;10.216;2023-02-03T01:30:19;6.63;93.03
63704;SHT31;49851;53.684;10.216;2023-02-03T01:32:45;6.65;93.09
63704;SHT31;49851;53.684;10.216;2023-02-03T01:35:10;6.69;93.33
63704;SHT31;49851;53.684;10.216;2023-02-03T01:37:35;6.76;93.34
63704;SHT31;49851;53.684;10.216;2023-02-03T01:40:00;6.75;93.54
63704;SHT31;49851;53.684;10.216;2023-02-03T01:42:26;6.77;93.51
63704;SHT31;49851;53.684;10.216;2023-02-03T01:44:52;6.83;93.64
63704;SHT31;49851;53.684;10.216;2023-02-03T01:47:23;6.83;93.64
63704;SHT31;49851;53.684;10.216;2023-02-03T01:49:58;6.84;93.72
63704;SHT31;49851;53.684;10.216;2023-02-03T01:52:24;6.87;93.78
63704;SHT31;49851;53.684;10.216;2023-02-03T01:54:49;6.86;93.86
63704;SHT31;49851;53.684;10.216;2023-02-03T01:57:18;6.87;93.97
63704;SHT31;49851;53.684;10.216;2023-02-03T01:59:45;6.94;94.10
63704;SHT31;49851;53.684;10.216;2023-02-03T02:02:11;6.94;94.13
63704;SHT31;49851;53.684;10.216;2023-02-03T02:07:22;7.01;94.28
63704;SHT31;49851;53.684;10.216;2023-02-03T02:09:47;7.01;94.29
63704;SHT31;49851;53.684;10.216;2023-02-03T02:12:12;7.03;94.28
63704;SHT31;49851;53.684;10.216;2023-02-03T02:14:38;7.01;94.30
63704;SHT31;49851;53.684;10.216;2023-02-03T02:19:56;7.04;94.34
63704;SHT31;49851;53.684;10.216;2023-02-03T02:22:24;7.04;94.42
63704;SHT31;49851;53.684;10.216;2023-02-03T02:40:47;7.12;94.49
63704;SHT31;49851;53.684;10.216;2023-02-03T02:48:09;7.11;94.55
63704;SHT31;49851;53.684;10.216;2023-02-03T02:50:38;7.12;94.57
63704;SHT31;49851;53.684;10.216;2023-02-03T02:53:05;7.14;94.64
63704;SHT31;49851;53.684;10.216;2023-02-03T02:55:32;7.17;94.65
63704;SHT31;49851;53.684;10.216;2023-02-03T02:58:03;7.15;94.62
63704;SHT31;49851;53.684;10.216;2023-02-03T03:00:30;7.17;94.66
63704;SHT31;49851;53.684;10.216;2023-02-03T03:02:55;7.18;94.66
63704;SHT31;49851;53.684;10.216;2023-02-03T03:05:21;7.17;94.65
63704;SHT31;49851;53.684;10.216;2023-02-03T03:07:49;7.18;94.67
63704;SHT31;49851;53.684;10.216;2023-02-03T03:10:17;7.19;94.71
63704;SHT31;49851;53.684;10.216;2023-02-03T03:12:48;7.19;94.69
63704;SHT31;49851;53.684;10.216;2023-02-03T03:15:15;7.19;94.68
63704;SHT31;49851;53.684;10.216;2023-02-03T03:17:43;7.21;94.75
63704;SHT31;49851;53.684;10.216;2023-02-03T03:20:11;7.19;94.73
63704;SHT31;49851;53.684;10.216;2023-02-03T03:22:40;7.18;94.73
63704;SHT31;49851;53.684;10.216;2023-02-03T03:25:10;7.19;94.71
63704;SHT31;49851;53.684;10.216;2023-02-03T03:27:37;7.21;94.72
63704;SHT31;49851;53.684;10.216;2023-02-03T03:30:05;7.22;94.72
63704;SHT31;49851;53.684;10.216;2023-02-03T03:32:30;7.24;94.74
63704;SHT31;49851;53.684;10.216;2023-02-03T03:34:57;7.22;94.75
63704;SHT31;49851;53.684;10.216;2023-02-03T03:37:34;7.24;94.74
63704;SHT31;49851;53.684;10.216;2023-02-03T03:40:01;7.22;94.77
63704;SHT31;49851;53.684;10.216;2023-02-03T03:45:13;7.27;94.77
63704;SHT31;49851;53.684;10.216;2023-02-03T03:50:11;7.27;94.74
63704;SHT31;49851;53.684;10.216;2023-02-03T03:52:39;7.24;94.74
63704;SHT31;49851;53.684;10.216;2023-02-03T03:55:05;7.25;94.75
63704;SHT31;49851;53.684;10.216;2023-02-03T03:57:38;7.29;94.76
63704;SHT31;49851;53.684;10.216;2023-02-03T04:00:05;7.27;94.78
63704;SHT31;49851;53.684;10.216;2023-02-03T04:02:33;7.31;94.81
63704;SHT31;49851;53.684;10.216;2023-02-03T04:05:00;7.29;94.84
63704;SHT31;49851;53.684;10.216;2023-02-03T04:07:43;7.32;94.84
63704;SHT31;49851;53.684;10.216;2023-02-03T04:10:30;7.31;94.82
63704;SHT31;49851;53.684;10.216;2023-02-03T04:12:54;7.31;94.81
63704;SHT31;49851;53.684;10.216;2023-02-03T04:15:19;7.31;94.82
63704;SHT31;49851;53.684;10.216;2023-02-03T04:17:44;7.31;94.83
63704;SHT31;49851;53.684;10.216;2023-02-03T04:20:10;7.31;94.92
63704;SHT31;49851;53.684;10.216;2023-02-03T04:22:35;7.32;94.91
63704;SHT31;49851;53.684;10.216;2023-02-03T04:25:00;7.34;94.95
63704;SHT31;49851;53.684;10.216;2023-02-03T04:27:26;7.38;95.01
63704;SHT31;49851;53.684;10.216;2023-02-03T04:29:51;7.32;95.00
63704;SHT31;49851;53.684;10.216;2023-02-03T04:32:16;7.36;95.01
63704;SHT31;49851;53.684;10.216;2023-02-03T04:34:42;7.38;94.98
63704;SHT31;49851;53.684;10.216;2023-02-03T04:37:07;7.35;94.98
63704;SHT31;49851;53.684;10.216;2023-02-03T04:39:32;7.35;95.00
63704;SHT31;49851;53.684;10.216;2023-02-03T04:41:57;7.31;95.03
63704;SHT31;49851;53.684;10.216;2023-02-03T04:44:23;7.32;95.04
63704;SHT31;49851;53.684;10.216;2023-02-03T04:46:48;7.35;95.10
63704;SHT31;49851;53.684;10.216;2023-02-03T04:49:13;7.36;95.15
63704;SHT31;49851;53.684;10.216;2023-02-03T04:51:38;7.39;95.20
63704;SHT31;49851;53.684;10.216;2023-02-03T04:54:04;7.35;95.18
63704;SHT31;49851;53.684;10.216;2023-02-03T04:56:29;7.38;95.18
63704;SHT31;49851;53.684;10.216;2023-02-03T04:58:54;7.41;95.16
63704;SHT31;49851;53.684;10.216;2023-02-03T05:01:19;7.38;95.22
63704;SHT31;49851;53.684;10.216;2023-02-03T05:03:45;7.41;95.23
63704;SHT31;49851;53.684;10.216;2023-02-03T05:06:10;7.41;95.21
63704;SHT31;49851;53.684;10.216;2023-02-03T05:08:35;7.41;95.24
63704;SHT31;49851;53.684;10.216;2023-02-03T05:11:00;7.41;95.29
63704;SHT31;49851;53.684;10.216;2023-02-03T05:13:26;7.42;95.31
63704;SHT31;49851;53.684;10.216;2023-02-03T05:15:51;7.42;95.36
63704;SHT31;49851;53.684;10.216;2023-02-03T05:18:16;7.42;95.35
63704;SHT31;49851;53.684;10.216;2023-02-03T05:20:41;7.43;95.35
63704;SHT31;49851;53.684;10.216;2023-02-03T05:23:07;7.43;95.32
63704;SHT31;49851;53.684;10.216;2023-02-03T05:25:32;7.39;95.33
63704;SHT31;49851;53.684;10.216;2023-02-03T05:27:57;7.41;95.37
63704;SHT31;49851;53.684;10.216;2023-02-03T05:30:22;7.41;95.37
63704;SHT31;49851;53.684;10.216;2023-02-03T05:32:48;7.42;95.41
63704;SHT31;49851;53.684;10.216;2023-02-03T05:35:14;7.43;95.44
63704;SHT31;49851;53.684;10.216;2023-02-03T05:37:39;7.41;95.45
63704;SHT31;49851;53.684;10.216;2023-02-03T05:40:04;7.46;95.46
63704;SHT31;49851;53.684;10.216;2023-02-03T05:42:48;7.43;95.46
63704;SHT31;49851;53.684;10.216;2023-02-03T05:45:14;7.45;95.47
63704;SHT31;49851;53.684;10.216;2023-02-03T05:47:39;7.45;95.47
63704;SHT31;49851;53.684;10.216;2023-02-03T05:50:04;7.45;95.48
63704;SHT31;49851;53.684;10.216;2023-02-03T05:52:30;7.45;95.53
63704;SHT31;49851;53.684;10.216;2023-02-03T05:54:55;7.45;95.56
63704;SHT31;49851;53.684;10.216;2023-02-03T05:57:20;7.46;95.56
63704;SHT31;49851;53.684;10.216;2023-02-03T05:59:45;7.45;95.57
63704;SHT31;49851;53.684;10.216;2023-02-03T06:02:10;7.45;95.60
63704;SHT31;49851;53.684;10.216;2023-02-03T06:04:36;7.48;95.63
63704;SHT31;49851;53.684;10.216;2023-02-03T06:07:01;7.48;95.60
63704;SHT31;49851;53.684;10.216;2023-02-03T06:09:26;7.48;95.61
63704;SHT31;49851;53.684;10.216;2023-02-03T06:11:51;7.48;95.60
63704;SHT31;49851;53.684;10.216;2023-02-03T06:14:17;7.46;95.57
63704;SHT31;49851;53.684;10.216;2023-02-03T06:16:42;7.45;95.57
63704;SHT31;49851;53.684;10.216;2023-02-03T06:19:07;7.45;95.59
63704;SHT31;49851;53.684;10.216;2023-02-03T06:21:32;7.48;95.62
63704;SHT31;49851;53.684;10.216;2023-02-03T06:23:58;7.46;95.60
63704;SHT31;49851;53.684;10.216;2023-02-03T06:26:23;7.46;95.69
63704;SHT31;49851;53.684;10.216;2023-02-03T06:28:49;7.49;95.73
63704;SHT31;49851;53.684;10.216;2023-02-03T06:31:14;7.53;95.75
63704;SHT31;49851;53.684;10.216;2023-02-03T06:33:39;7.53;95.78
63704;SHT31;49851;53.684;10.216;2023-02-03T06:36:05;7.55;95.79
63704;SHT31;49851;53.684;10.216;2023-02-03T06:38:30;7.55;95.78
63704;SHT31;49851;53.684;10.216;2023-02-03T06:40:55;7.53;95.82
63704;SHT31;49851;53.684;10.216;2023-02-03T06:43:20;7.55;95.83
63704;SHT31;49851;53.684;10.216;2023-02-03T06:45:46;7.56;95.82
63704;SHT31;49851;53.684;10.216;2023-02-03T06:48:12;7.55;95.82
63704;SHT31;49851;53.684;10.216;2023-02-03T06:50:38;7.56;95.84
63704;SHT31;49851;53.684;10.216;2023-02-03T06:53:03;7.55;95.87
63704;SHT31;49851;53.684;10.216;2023-02-03T06:55:28;7.58;95.85
63704;SHT31;49851;53.684;10.216;2023-02-03T06:57:53;7.56;95.87
63704;SHT31;49851;53.684;10.216;2023-02-03T07:00:19;7.55;95.89
63704;SHT31;49851;53.684;10.216;2023-02-03T07:02:45;7.55;95.92
63704;SHT31;49851;53.684;10.216;2023-02-03T07:05:10;7.56;95.94
63704;SHT31;49851;53.684;10.216;2023-02-03T07:07:35;7.58;95.93
63704;SHT31;49851;53.684;10.216;2023-02-03T07:10:03;7.58;95.98
63704;SHT31;49851;53.684;10.216;2023-02-03T07:12:28;7.58;96.01
63704;SHT31;49851;53.684;10.216;2023-02-03T07:14:54;7.60;96.07
63704;SHT31;49851;53.684;10.216;2023-02-03T07:17:20;7.59;96.06
63704;SHT31;49851;53.684;10.216;2023-02-03T07:19:45;7.62;96.09
63704;SHT31;49851;53.684;10.216;2023-02-03T07:22:10;7.62;96.10
63704;SHT31;49851;53.684;10.216;2023-02-03T07:24:36;7.62;96.20
63704;SHT31;49851;53.684;10.216;2023-02-03T07:27:01;7.65;96.22
63704;SHT31;49851;53.684;10.216;2023-02-03T07:29:26;7.67;96.33
63704;SHT31;49851;53.684;10.216;2023-02-03T07:31:51;7.70;96.41
63704;SHT31;49851;53.684;10.216;2023-02-03T07:34:17;7.74;96.46
63704;SHT31;49851;53.684;10.216;2023-02-03T07:36:42;7.73;96.46
63704;SHT31;49851;53.684;10.216;2023-02-03T07:39:07;7.74;96.46
63704;SHT31;49851;53.684;10.216;2023-02-03T07:41:32;7.74;96.49
63704;SHT31;49851;53.684;10.216;2023-02-03T07:43:58;7.74;96.45
63704;SHT31;49851;53.684;10.216;2023-02-03T07:46:23;7.73;96.49
63704;SHT31;49851;53.684;10.216;2023-02-03T07:48:48;7.76;96.52
63704;SHT31;49851;53.684;10.216;2023-02-03T07:51:13;7.76;96.50
63704;SHT31;49851;53.684;10.216;2023-02-03T07:53:39;7.73;96.53
63704;SHT31;49851;53.684;10.216;2023-02-03T07:56:04;7.74;96.59
63704;SHT31;49851;53.684;10.216;2023-02-03T07:58:29;7.80;96.61
63704;SHT31;49851;53.684;10.216;2023-02-03T08:00:55;7.79;96.65
63704;SHT31;49851;53.684;10.216;2023-02-03T08:03:20;7.81;96.69
63704;SHT31;49851;53.684;10.216;2023-02-03T08:05:46;7.83;96.67
63704;SHT31;49851;53.684;10.216;2023-02-03T08:08:11;7.83;96.63
63704;SHT31;49851;53.684;10.216;2023-02-03T08:10:36;7.83;96.61
63704;SHT31;49851;53.684;10.216;2023-02-03T08:13:02;7.79;96.53
63704;SHT31;49851;53.684;10.216;2023-02-03T08:15:27;7.79;96.53
63704;SHT31;49851;53.684;10.216;2023-02-03T08:17:52;7.77;96.50
63704;SHT31;49851;53.684;10.216;2023-02-03T08:20:17;7.71;96.44
63704;SHT31;49851;53.684;10.216;2023-02-03T08:22:43;7.71;96.31
63704;SHT31;49851;53.684;10.216;2023-02-03T08:25:08;7.67;96.27
63704;SHT31;49851;53.684;10.216;2023-02-03T08:27:34;7.66;96.14
63704;SHT31;49851;53.684;10.216;2023-02-03T08:29:59;7.69;96.19
63704;SHT31;49851;53.684;10.216;2023-02-03T08:32:24;7.65;96.13
63704;SHT31;49851;53.684;10.216;2023-02-03T08:34:50;7.66;96.13
63704;SHT31;49851;53.684;10.216;2023-02-03T08:37:17;7.67;96.07
63704;SHT31;49851;53.684;10.216;2023-02-03T08:39:42;7.66;96.03
63704;SHT31;49851;53.684;10.216;2023-02-03T08:42:08;7.66;95.92
63704;SHT31;49851;53.684;10.216;2023-02-03T08:44:33;7.66;95.84
63704;SHT31;49851;53.684;10.216;2023-02-03T08:46:59;7.66;95.86
63704;SHT31;49851;53.684;10.216;2023-02-03T08:49:25;7.67;95.77
63704;SHT31;49851;53.684;10.216;2023-02-03T08:51:51;7.65;95.73
63704;SHT31;49851;53.684;10.216;2023-02-03T08:54:16;7.66;95.66
63704;SHT31;49851;53.684;10.216;2023-02-03T08:56:42;7.66;95.66
63704;SHT31;49851;53.684;10.216;2023-02-03T08:59:07;7.67;95.49
63704;SHT31;49851;53.684;10.216;2023-02-03T09:01:32;7.67;95.48
63704;SHT31;49851;53.684;10.216;2023-02-03T09:03:58;7.67;95.42
63704;SHT31;49851;53.684;10.216;2023-02-03T09:06:25;7.66;95.33
63704;SHT31;49851;53.684;10.216;2023-02-03T09:08:51;7.65;95.37
63704;SHT31;49851;53.684;10.216;2023-02-03T09:11:16;7.67;95.23
63704;SHT31;49851;53.684;10.216;2023-02-03T09:13:42;7.63;95.21
63704;SHT31;49851;53.684;10.216;2023-02-03T09:16:11;7.67;95.17
63704;SHT31;49851;53.684;10.216;2023-02-03T09:18:37;7.63;94.87
63704;SHT31;49851;53.684;10.216;2023-02-03T09:21:03;7.65;94.77
63704;SHT31;49851;53.684;10.216;2023-02-03T09:23:29;7.62;94.65
63704;SHT31;49851;53.684;10.216;2023-02-03T09:25:54;7.63;94.59
63704;SHT31;49851;53.684;10.216;2023-02-03T09:28:19;7.62;94.38
63704;SHT31;49851;53.684;10.216;2023-02-03T09:30:44;7.59;94.10
63704;SHT31;49851;53.684;10.216;2023-02-03T09:33:11;7.60;93.90
63704;SHT31;49851;53.684;10.216;2023-02-03T09:35:36;7.60;93.83
63704;SHT31;49851;53.684;10.216;2023-02-03T09:38:01;7.59;93.75
63704;SHT31;49851;53.684;10.216;2023-02-03T09:40:29;7.60;93.46
63704;SHT31;49851;53.684;10.216;2023-02-03T09:45:31;7.59;93.14
63704;SHT31;49851;53.684;10.216;2023-02-03T09:48:02;7.58;93.14
63704;SHT31;49851;53.684;10.216;2023-02-03T09:50:29;7.58;92.95
63704;SHT31;49851;53.684;10.216;2023-02-03T09:52:56;7.58;92.62
63704;SHT31;49851;53.684;10.216;2023-02-03T09:57:49;7.59;92.29
63704;SHT31;49851;53.684;10.216;2023-02-03T10:00:22;7.59;92.22
63704;SHT31;49851;53.684;10.216;2023-02-03T10:10:41;7.59;91.51
63704;SHT31;49851;53.684;10.216;2023-02-03T10:13:29;7.56;91.15
63704;SHT31;49851;53.684;10.216;2023-02-03T10:16:19;7.60;91.15
63704;SHT31;49851;53.684;10.216;2023-02-03T10:18:46;7.60;90.97
63704;SHT31;49851;53.684;10.216;2023-02-03T10:23:43;7.59;90.57
63704;SHT31;49851;53.684;10.216;2023-02-03T10:26:12;7.59;90.26
63704;SHT31;49851;53.684;10.216;2023-02-03T10:28:39;7.60;90.28
63704;SHT31;49851;53.684;10.216;2023-02-03T10:31:19;7.59;89.96
63704;SHT31;49851;53.684;10.216;2023-02-03T10:33:45;7.62;90.06
63704;SHT31;49851;53.684;10.216;2023-02-03T10:41:03;7.60;89.35
63704;SHT31;49851;53.684;10.216;2023-02-03T10:43:28;7.60;89.14
63704;SHT31;49851;53.684;10.216;2023-02-03T10:46:14;7.62;89.21
63704;SHT31;49851;53.684;10.216;2023-02-03T10:48:40;7.63;89.31
63704;SHT31;49851;53.684;10.216;2023-02-03T10:51:10;7.62;89.07
63704;SHT31;49851;53.684;10.216;2023-02-03T10:53:39;7.65;89.73
63704;SHT31;49851;53.684;10.216;2023-02-03T10:56:08;7.67;89.73
63704;SHT31;49851;53.684;10.216;2023-02-03T10:58:34;7.69;89.80
63704;SHT31;49851;53.684;10.216;2023-02-03T11:01:11;7.76;89.58
63704;SHT31;49851;53.684;10.216;2023-02-03T11:03:37;7.74;89.30
63704;SHT31;49851;53.684;10.216;2023-02-03T11:06:06;7.77;89.37
63704;SHT31;49851;53.684;10.216;2023-02-03T11:08:33;7.80;89.11
63704;SHT31;49851;53.684;10.216;2023-02-03T11:11:06;7.77;88.92
63704;SHT31;49851;53.684;10.216;2023-02-03T11:13:32;7.79;88.21
63704;SHT31;49851;53.684;10.216;2023-02-03T11:16:04;7.74;87.96
63704;SHT31;49851;53.684;10.216;2023-02-03T11:18:41;7.76;87.85
63704;SHT31;49851;53.684;10.216;2023-02-03T11:24:22;7.76;87.56
63704;SHT31;49851;53.684;10.216;2023-02-03T11:26:29;7.81;87.69
63704;SHT31;49851;53.684;10.216;2023-02-03T11:28:55;7.84;87.42
63704;SHT31;49851;53.684;10.216;2023-02-03T11:31:25;7.87;87.35
63704;SHT31;49851;53.684;10.216;2023-02-03T11:33:53;7.88;87.19
63704;SHT31;49851;53.684;10.216;2023-02-03T11:36:19;7.87;86.73
63704;SHT31;49851;53.684;10.216;2023-02-03T11:38:44;7.88;86.65
63704;SHT31;49851;53.684;10.216;2023-02-03T11:41:14;7.87;86.68
63704;SHT31;49851;53.684;10.216;2023-02-03T11:43:39;7.90;86.67
63704;SHT31;49851;53.684;10.216;2023-02-03T11:46:04;7.93;86.69
63704;SHT31;49851;53.684;10.216;2023-02-03T12:12:36;7.97;84.98
63704;SHT31;49851;53.684;10.216;2023-02-03T12:15:05;8.01;85.01
63704;SHT31;49851;53.684;10.216;2023-02-03T12:20:30;8.04;84.89
63704;SHT31;49851;53.684;10.216;2023-02-03T12:30:30;7.98;84.05
63704;SHT31;49851;53.684;10.216;2023-02-03T12:32:57;7.99;83.70
63704;SHT31;49851;53.684;10.216;2023-02-03T12:38:08;7.98;83.53
63704;SHT31;49851;53.684;10.216;2023-02-03T12:40:41;7.99;83.56
63704;SHT31;49851;53.684;10.216;2023-02-03T12:43:56;8.01;83.39
63704;SHT31;49851;53.684;10.216;2023-02-03T12:45:59;7.98;83.15
63704;SHT31;49851;53.684;10.216;2023-02-03T12:48:28;7.98;83.38
63704;SHT31;49851;53.684;10.216;2023-02-03T12:50:57;7.97;83.58
63704;SHT31;49851;53.684;10.216;2023-02-03T12:53:26;7.97;83.40
63704;SHT31;49851;53.684;10.216;2023-02-03T12:56:07;7.94;83.13
63704;SHT31;49851;53.684;10.216;2023-02-03T12:58:43;7.91;83.44
63704;SHT31;49851;53.684;10.216;2023-02-03T13:03:49;7.93;83.46
63704;SHT31;49851;53.684;10.216;2023-02-03T13:09:00;7.93;83.45
63704;SHT31;49851;53.684;10.216;2023-02-03T13:11:47;7.95;83.32
63704;SHT31;49851;53.684;10.216;2023-02-03T13:14:17;7.91;82.85
63704;SHT31;49851;53.684;10.216;2023-02-03T13:16:43;7.93;82.82
63704;SHT31;49851;53.684;10.216;2023-02-03T13:19:20;7.88;82.86
63704;SHT31;49851;53.684;10.216;2023-02-03T13:21:49;7.88;82.53
63704;SHT31;49851;53.684;10.216;2023-02-03T13:24:14;7.88;82.64
63704;SHT31;49851;53.684;10.216;2023-02-03T13:26:50;7.87;82.85
63704;SHT31;49851;53.684;10.216;2023-02-03T13:30:24;7.88;82.29
63704;SHT31;49851;53.684;10.216;2023-02-03T13:40:17;7.84;82.49
63704;SHT31;49851;53.684;10.216;2023-02-03T13:42:46;7.81;82.23
63704;SHT31;49851;53.684;10.216;2023-02-03T13:47:44;7.84;82.49
63704;SHT31;49851;53.684;10.216;2023-02-03T13:50:18;7.81;82.37
63704;SHT31;49851;53.684;10.216;2023-02-03T13:55:53;7.81;82.23
63704;SHT31;49851;53.684;10.216;2023-02-03T13:58:24;7.83;82.04
63704;SHT31;49851;53.684;10.216;2023-02-03T14:05:53;7.81;82.19
63704;SHT31;49851;53.684;10.216;2023-02-03T14:13:37;7.83;82.01
63704;SHT31;49851;53.684;10.216;2023-02-03T14:16:13;7.86;82.03
63704;SHT31;49851;53.684;10.216;2023-02-03T14:18:45;7.84;82.10
63704;SHT31;49851;53.684;10.216;2023-02-03T14:21:11;7.81;82.20
63704;SHT31;49851;53.684;10.216;2023-02-03T14:23:43;7.83;82.30
63704;SHT31;49851;53.684;10.216;2023-02-03T14:26:16;7.81;82.42
63704;SHT31;49851;53.684;10.216;2023-02-03T14:28:42;7.83;82.39
63704;SHT31;49851;53.684;10.216;2023-02-03T14:31:12;7.80;82.47
63704;SHT31;49851;53.684;10.216;2023-02-03T14:38:52;7.77;82.64
63704;SHT31;49851;53.684;10.216;2023-02-03T14:41:19;7.74;82.65
63704;SHT31;49851;53.684;10.216;2023-02-03T14:44:04;7.73;82.70
63704;SHT31;49851;53.684;10.216;2023-02-03T14:51:47;7.73;83.05
63704;SHT31;49851;53.684;10.216;2023-02-03T14:57:03;7.73;82.85
63704;SHT31;49851;53.684;10.216;2023-02-03T15:04:30;7.70;82.95
63704;SHT31;49851;53.684;10.216;2023-02-03T15:06:55;7.69;82.89
63704;SHT31;49851;53.684;10.216;2023-02-03T15:09:26;7.69;82.89
63704;SHT31;49851;53.684;10.216;2023-02-03T15:11:52;7.66;82.99
63704;SHT31;49851;53.684;10.216;2023-02-03T15:14:24;7.67;83.10
63704;SHT31;49851;53.684;10.216;2023-02-03T15:17:00;7.65;83.14
63704;SHT31;49851;53.684;10.216;2023-02-03T15:19:33;7.66;83.16
63704;SHT31;49851;53.684;10.216;2023-02-03T15:21:58;7.65;82.98
63704;SHT31;49851;53.684;10.216;2023-02-03T15:24:23;7.65;83.03
63704;SHT31;49851;53.684;10.216;2023-02-03T15:26:53;7.71;82.96
63704;SHT31;49851;53.684;10.216;2023-02-03T15:29:25;7.69;83.03
63704;SHT31;49851;53.684;10.216;2023-02-03T15:32:11;7.67;82.91
63704;SHT31;49851;53.684;10.216;2023-02-03T15:34:46;7.67;82.91
63704;SHT31;49851;53.684;10.216;2023-02-03T15:37:15;7.66;82.85
63704;SHT31;49851;53.684;10.216;2023-02-03T15:39:46;7.67;82.86
63704;SHT31;49851;53.684;10.216;2023-02-03T15:42:23;7.67;82.87
63704;SHT31;49851;53.684;10.216;2023-02-03T15:47:28;7.67;83.08
63704;SHT31;49851;53.684;10.216;2023-02-03T15:49:56;7.65;83.11
63704;SHT31;49851;53.684;10.216;2023-02-03T15:52:23;7.63;83.21
63704;SHT31;49851;53.684;10.216;2023-02-03T15:54:52;7.62;83.28
63704;SHT31;49851;53.684;10.216;2023-02-03T15:57:23;7.62;83.36
63704;SHT31;49851;53.684;10.216;2023-02-03T15:59:52;7.62;83.44
63704;SHT31;49851;53.684;10.216;2023-02-03T16:02:30;7.60;83.45
63704;SHT31;49851;53.684;10.216;2023-02-03T16:04:57;7.59;83.60
63704;SHT31;49851;53.684;10.216;2023-02-03T16:07:27;7.60;83.67
63704;SHT31;49851;53.684;10.216;2023-02-03T16:09:54;7.62;83.60
63704;SHT31;49851;53.684;10.216;2023-02-03T16:12:24;7.60;83.75
63704;SHT31;49851;53.684;10.216;2023-02-03T16:14:50;7.56;83.88
63704;SHT31;49851;53.684;10.216;2023-02-03T16:17:19;7.58;84.07
63704;SHT31;49851;53.684;10.216;2023-02-03T16:19:46;7.56;84.28
63704;SHT31;49851;53.684;10.216;2023-02-03T16:22:27;7.55;84.45
63704;SHT31;49851;53.684;10.216;2023-02-03T16:24:53;7.52;84.65
63704;SHT31;49851;53.684;10.216;2023-02-03T16:29:50;7.48;85.05
63704;SHT31;49851;53.684;10.216;2023-02-03T16:32:34;7.49;85.19
63704;SHT31;49851;53.684;10.216;2023-02-03T16:35:18;7.43;85.36
63704;SHT31;49851;53.684;10.216;2023-02-03T16:38:06;7.46;85.55
63704;SHT31;49851;53.684;10.216;2023-02-03T16:40:50;7.45;85.81
63704;SHT31;49851;53.684;10.216;2023-02-03T16:43:34;7.42;86.05
63704;SHT31;49851;53.684;10.216;2023-02-03T16:46:18;7.39;86.27
63704;SHT31;49851;53.684;10.216;2023-02-03T16:49:02;7.38;86.45
63704;SHT31;49851;53.684;10.216;2023-02-03T16:51:46;7.36;86.69
63704;SHT31;49851;53.684;10.216;2023-02-03T16:54:12;7.34;86.84
63704;SHT31;49851;53.684;10.216;2023-02-03T16:56:37;7.34;86.96
63704;SHT31;49851;53.684;10.216;2023-02-03T16:59:03;7.32;87.12
63704;SHT31;49851;53.684;10.216;2023-02-03T17:01:28;7.31;87.20
63704;SHT31;49851;53.684;10.216;2023-02-03T17:03:53;7.28;87.30
63704;SHT31;49851;53.684;10.216;2023-02-03T17:06:19;7.27;87.46
63704;SHT31;49851;53.684;10.216;2023-02-03T17:08:44;7.25;87.62
63704;SHT31;49851;53.684;10.216;2023-02-03T17:11:12;7.24;87.77
63704;SHT31;49851;53.684;10.216;2023-02-03T17:13:39;7.25;87.92
63704;SHT31;49851;53.684;10.216;2023-02-03T17:16:09;7.21;88.09
63704;SHT31;49851;53.684;10.216;2023-02-03T17:18:34;7.25;88.19
63704;SHT31;49851;53.684;10.216;2023-02-03T17:21:03;7.22;88.29
63704;SHT31;49851;53.684;10.216;2023-02-03T17:23:29;7.22;88.34
63704;SHT31;49851;53.684;10.216;2023-02-03T17:25:54;7.22;88.38
63704;SHT31;49851;53.684;10.216;2023-02-03T17:28:19;7.18;88.44
63704;SHT31;49851;53.684;10.216;2023-02-03T17:30:45;7.19;88.54
63704;SHT31;49851;53.684;10.216;2023-02-03T17:33:19;7.19;88.70
63704;SHT31;49851;53.684;10.216;2023-02-03T17:35:44;7.19;88.84
63704;SHT31;49851;53.684;10.216;2023-02-03T17:38:10;7.21;88.84
63704;SHT31;49851;53.684;10.216;2023-02-03T17:40:42;7.19;88.93
63704;SHT31;49851;53.684;10.216;2023-02-03T17:43:07;7.25;88.89
63704;SHT31;49851;53.684;10.216;2023-02-03T17:45:32;7.25;88.94
63704;SHT31;49851;53.684;10.216;2023-02-03T17:47:58;7.22;88.98
63704;SHT31;49851;53.684;10.216;2023-02-03T17:50:25;7.24;88.92
63704;SHT31;49851;53.684;10.216;2023-02-03T17:52:50;7.25;88.85
63704;SHT31;49851;53.684;10.216;2023-02-03T17:55:15;7.27;88.93
63704;SHT31;49851;53.684;10.216;2023-02-03T17:57:41;7.29;88.87